RJSU(METAR)
03/23 14:00
METAR RJSU 230500Z 32017KT 9999 FEW030 BKN050 09/M09 Q1013 RMK
1CU030 5CU050 A2993 MAX WIND 24KT=
戻る
トップページへ戻る
IMOC Co,.Ltd.